アビジャン の空港の天気 - METARとTAF

アビジャン空港 ( DIAP / ABJ ) - コートジボワール アビジャン
飛行場実況気象(Metar)
観測時間05/30 14:00 GMT (05/30 14:00 UTC)
風向・風速南 6m/s
視程10km以上
天気現象
全天の4割程度の雲 雲底高度 460m
少しの雲 雲底高度 610m
全天の8割程度の雲 雲底高度 910m
気温28℃
湿度84%
気圧1012hPa
METARDIAP 301400Z 17012KT 9999 TS SCT015 FEW020CB BKN030 28/25 Q1012 NOSIG
過去の天気等 Google飛行場航空写真 Wunderground天気予報

過去48時間のMETAR

飛行場予報(TAF)
発表時間: 5/30 11:00 GMT (5/30 11:00 UTC)
予報対象時間: 30日12時 GMT ~ 31日18時 GMT
風向・風速南西 6m/s
視程10km以上
全天の4割程度の雲 雲底高度 370m
30日14時 GMT ~ 30日20時 GMT に一時的に
天気現象
全天の8割程度の雲 雲底高度 370m
少しの積乱雲 雲底高度 610m
30日20時 GMT ~ 31日2時 GMT に 確率 30% で一時的に
全天の8割程度の雲 雲底高度 370m
少しの積乱雲 雲底高度 610m
31日15時 GMT ~ 31日18時 GMT に一時的に
天気現象
全天の8割程度の雲 雲底高度 370m
少しの積乱雲 雲底高度 610m
TAF DIAP 301100Z 3012/3118 23012KT 9999 SCT012
TEMPO 3014/3020 TS BKN012 FEW020CB
PROB30 TEMPO 3020/3102 BKN012 FEW020CB
TEMPO 3115/3118 TS BKN012 FEW020CB